^^
Your Local Weather - Clay, NY Station Historical Data
Daily Summary for March 5, 2017 Units:  Metric    English   Both
« Previous Day
Next Day »
Daily Weekly Monthly Yearly Custom
  High: Low: Average:
Temperature: -2.3 °C -16.1 °C -9.1 °C
Dew Point: -11.6 °C -21.3 °C -18.1 °C
Humidity: 78% 24% 51%
Wind Speed: 6.4km/h 0km/h 1.3km/h
Wind Gust: 11.3km/h - -
Wind- - South
Pressure: 1042.2 hPa 1032.1 hPa -
Precipitation: 0 mm    
Historical Graphs
 
 
Tabular Data for March 5, 2017
Time Temperature Dew Point Pressure Wind Wind Speed Wind Gust Humidity Rainfall Rate (Hourly) solar
00:04 -13.6 °C -17.7 °C 1039.8 hPa Calm     71% 0 mm 0 W/m2
00:05 -13.6 °C -17.7 °C 1039.8 hPa Calm     71% 0 mm 0 W/m2
00:12 -13.6 °C -18.3 °C 1039.8 hPa Calm     68% 0 mm 0 W/m2
00:18 -13.6 °C -18.6 °C 1039.8 hPa Calm     66% 0 mm 0 W/m2
00:23 -13.6 °C -18.6 °C 1040.2 hPa Calm     66% 0 mm 0 W/m2
00:30 -13.7 °C -18.8 °C 1040.2 hPa Calm     65% 0 mm 0 W/m2
00:36 -13.7 °C -18.9 °C 1040.2 hPa Calm     65% 0 mm 0 W/m2
00:42 -13.8 °C -18.8 °C 1040.2 hPa Calm   1.6 km/h 66% 0 mm 0 W/m2
00:48 -13.9 °C -18.7 °C 1040.2 hPa Calm   1.6 km/h 67% 0 mm 0 W/m2
00:54 -14.1 °C -18.8 °C 1040.2 hPa Calm     67% 0 mm 0 W/m2
01:00 -14.2 °C -18.8 °C 1040.2 hPa Calm     68% 0 mm 0 W/m2
01:06 -14.2 °C -19.2 °C 1040.2 hPa Calm     66% 0 mm 0 W/m2
01:12 -14.2 °C -19.2 °C 1040.2 hPa Calm     66% 0 mm 0 W/m2
01:18 -14.2 °C -19.4 °C 1040.2 hPa Calm     65% 0 mm 0 W/m2
01:24 -14.2 °C -19.7 °C 1040.5 hPa Calm     63% 0 mm 0 W/m2
01:30 -14.2 °C -19.9 °C 1040.5 hPa Calm   1.6 km/h 62% 0 mm 0 W/m2
01:36 -14.2 °C -20.4 °C 1040.5 hPa NNW 1.6 km/h 3.2 km/h 59% 0 mm 0 W/m2
01:42 -14.2 °C -20.4 °C 1040.5 hPa NNW 1.6 km/h 1.6 km/h 59% 0 mm 0 W/m2
01:48 -14.2 °C -20.7 °C 1040.5 hPa NNW 1.6 km/h 4.8 km/h 58% 0 mm 0 W/m2
01:54 -14.2 °C -20.8 °C 1040.5 hPa NE 1.6 km/h 1.6 km/h 57% 0 mm 0 W/m2
02:00 -14.2 °C -21.1 °C 1040.5 hPa NE 1.6 km/h 1.6 km/h 56% 0 mm 0 W/m2
02:06 -14.2 °C -21.1 °C 1040.5 hPa Calm   1.6 km/h 56% 0 mm 0 W/m2
02:12 -14.2 °C -20.9 °C 1040.5 hPa Calm   6.4 km/h 57% 0 mm 0 W/m2
02:18 -14.3 °C -21 °C 1040.5 hPa NNE 1.6 km/h 6.4 km/h 57% 0 mm 0 W/m2
02:24 -14.4 °C -20.8 °C 1040.5 hPa Calm     58% 0 mm 0 W/m2
02:30 -14.4 °C -20.9 °C 1040.5 hPa Calm     58% 0 mm 0 W/m2
02:36 -14.4 °C -21.1 °C 1040.5 hPa Calm   3.2 km/h 57% 0 mm 0 W/m2
02:42 -14.4 °C -20.9 °C 1040.5 hPa NNE 1.6 km/h 1.6 km/h 58% 0 mm 0 W/m2
02:48 -14.6 °C -20.6 °C 1040.5 hPa Calm   1.6 km/h 60% 0 mm 0 W/m2
02:54 -14.7 °C -20.7 °C 1040.5 hPa Calm     60% 0 mm 0 W/m2
03:00 -14.8 °C -20.7 °C 1040.5 hPa Calm     61% 0 mm 0 W/m2
03:06 -14.9 °C -20.6 °C 1040.5 hPa Calm     62% 0 mm 0 W/m2
03:12 -15.1 °C -20.3 °C 1040.5 hPa Calm     64% 0 mm 0 W/m2
03:18 -15.2 °C -20.1 °C 1040.9 hPa Calm     66% 0 mm 0 W/m2
03:24 -15.2 °C -20.2 °C 1040.9 hPa Calm     66% 0 mm 0 W/m2
03:30 -15.3 °C -20.1 °C 1040.9 hPa Calm     67% 0 mm 0 W/m2
03:36 -15.4 °C -20 °C 1041.2 hPa Calm     68% 0 mm 0 W/m2
03:42 -15.4 °C -19.8 °C 1041.2 hPa Calm     69% 0 mm 0 W/m2
03:48 -15.5 °C -19.7 °C 1041.2 hPa Calm     70% 0 mm 0 W/m2
03:54 -15.6 °C -19.6 °C 1041.2 hPa Calm     71% 0 mm 0 W/m2
04:00 -15.7 °C -19.7 °C 1041.2 hPa Calm     71% 0 mm 0 W/m2
04:06 -15.7 °C -19.8 °C 1041.2 hPa Calm     71% 0 mm 0 W/m2
04:12 -15.7 °C -19.6 °C 1041.2 hPa Calm     72% 0 mm 0 W/m2
04:18 -15.8 °C -19.5 °C 1041.2 hPa Calm     73% 0 mm 0 W/m2
04:24 -15.8 °C -19.6 °C 1041.2 hPa Calm     73% 0 mm 0 W/m2
04:30 -15.9 °C -19.7 °C 1041.2 hPa Calm     73% 0 mm 0 W/m2
04:36 -16 °C -19.7 °C 1041.5 hPa Calm     73% 0 mm 0 W/m2
04:42 -16.1 °C -19.6 °C 1041.5 hPa Calm     74% 0 mm 0 W/m2
04:48 -16.1 °C -19.6 °C 1041.5 hPa Calm     74% 0 mm 0 W/m2
04:54 -15.9 °C -19.3 °C 1041.5 hPa Calm     75% 0 mm 0 W/m2
05:00 -15.7 °C -19.1 °C 1041.5 hPa Calm     75% 0 mm 0 W/m2
05:06 -15.7 °C -19.2 °C 1041.5 hPa Calm     74% 0 mm 0 W/m2
05:12 -15.6 °C -19.2 °C 1041.5 hPa Calm     74% 0 mm 0 W/m2
05:18 -15.6 °C -19.3 °C 1041.5 hPa Calm     73% 0 mm 0 W/m2
05:24 -15.6 °C -19.3 °C 1041.5 hPa Calm     73% 0 mm 0 W/m2
05:30 -15.7 °C -19.2 °C 1041.5 hPa Calm     74% 0 mm 0 W/m2
05:36 -15.7 °C -19.3 °C 1041.5 hPa Calm     74% 0 mm 0 W/m2
05:42 -15.8 °C -19.2 °C 1041.5 hPa Calm     75% 0 mm 0 W/m2
05:48 -15.9 °C -19.3 °C 1041.5 hPa Calm     75% 0 mm 0 W/m2
05:54 -16 °C -19.4 °C 1041.5 hPa Calm     75% 0 mm 0 W/m2
06:00 -16.1 °C -19.3 °C 1041.5 hPa Calm     76% 0 mm 0 W/m2
06:06 -16.1 °C -19.3 °C 1041.9 hPa Calm     76% 0 mm 0 W/m2
06:12 -15.9 °C -19.1 °C 1041.9 hPa Calm     77% 0 mm 0 W/m2
06:18 -15.9 °C -19 °C 1041.9 hPa Calm     77% 0 mm 0 W/m2
06:24 -15.9 °C -19 °C 1041.5 hPa Calm     77% 0 mm 0 W/m2
06:30 -15.9 °C -18.8 °C 1041.9 hPa Calm     78% 0 mm 0 W/m2
06:36 -15.9 °C -18.8 °C 1041.9 hPa Calm     78% 0 mm 5 W/m2
06:42 -16 °C -18.9 °C 1041.9 hPa Calm     78% 0 mm 7 W/m2
06:48 -16.1 °C -19 °C 1042.2 hPa Calm     78% 0 mm 11 W/m2
06:54 -16.1 °C -19.1 °C 1041.9 hPa Calm     78% 0 mm 12 W/m2
07:00 -16.1 °C -19.1 °C 1042.2 hPa Calm     78% 0 mm 16 W/m2
07:06 -16.1 °C -19.1 °C 1042.2 hPa Calm     78% 0 mm 21 W/m2
07:12 -15.9 °C -18.9 °C 1042.2 hPa Calm     78% 0 mm 21 W/m2
07:18 -15.8 °C -18.8 °C 1041.9 hPa Calm     78% 0 mm 28 W/m2
07:24 -15.4 °C -18.4 °C 1041.9 hPa Calm   1.6 km/h 78% 0 mm 32 W/m2
07:30 -15.1 °C -18.1 °C 1042.2 hPa Calm     78% 0 mm 26 W/m2
07:36 -14.7 °C -18.1 °C 1042.2 hPa Calm   1.6 km/h 75% 0 mm 102 W/m2
07:42 -14.2 °C -18.7 °C 1041.9 hPa NNE 1.6 km/h 1.6 km/h 69% 0 mm 156 W/m2
07:48 -13.9 °C -18.8 °C 1042.2 hPa NNE 1.6 km/h 1.6 km/h 67% 0 mm 204 W/m2
07:54 -13.6 °C -18.9 °C 1041.9 hPa Calm   1.6 km/h 64% 0 mm 174 W/m2
08:00 -13.2 °C -19.2 °C 1041.5 hPa Calm     61% 0 mm 172 W/m2
08:06 -12.9 °C -19.4 °C 1041.5 hPa NE 1.6 km/h 4.8 km/h 58% 0 mm 195 W/m2
08:12 -12.8 °C -19.6 °C 1041.9 hPa NE 1.6 km/h 1.6 km/h 57% 0 mm 174 W/m2
08:18 -12.8 °C -19.7 °C 1041.9 hPa ENE 1.6 km/h 3.2 km/h 56% 0 mm 141 W/m2
08:24 -12.6 °C -19.3 °C 1041.9 hPa ENE 1.6 km/h 3.2 km/h 57% 0 mm 158 W/m2
08:30 -12.3 °C -19.3 °C 1041.9 hPa ENE 1.6 km/h 1.6 km/h 56% 0 mm 148 W/m2
08:36 -12.2 °C -19.4 °C 1041.9 hPa Calm   1.6 km/h 55% 0 mm 195 W/m2
08:42 -11.7 °C -19.6 °C 1042.2 hPa Calm   1.6 km/h 52% 0 mm 216 W/m2
08:48 -11.2 °C -18.9 °C 1042.2 hPa Calm   1.6 km/h 53% 0 mm 294 W/m2
08:54 -10.4 °C -18.4 °C 1042.2 hPa WNW 1.6 km/h 1.6 km/h 52% 0 mm 392 W/m2
09:00 -10.6 °C -20.6 °C 1042.2 hPa WNW 1.6 km/h 1.6 km/h 44% 0 mm 425 W/m2
09:06 -10.4 °C -19.1 °C 1042.2 hPa WNW 1.6 km/h 3.2 km/h 49% 0 mm 445 W/m2
09:12 -10.7 °C -19.9 °C 1042.2 hPa WNW 1.6 km/h 1.6 km/h 47% 0 mm 462 W/m2
09:18 -10.6 °C -19.1 °C 1042.2 hPa WNW 1.6 km/h 4.8 km/h 50% 0 mm 478 W/m2
09:24 -10.2 °C -18.7 °C 1042.2 hPa WSW 3.2 km/h 3.2 km/h 50% 0 mm 492 W/m2
09:30 -9.6 °C -19.6 °C 1042.2 hPa NNW 3.2 km/h 4.8 km/h 44% 0 mm 506 W/m2
09:36 -9.9 °C -20.2 °C 1042.2 hPa NW 3.2 km/h 6.4 km/h 43% 0 mm 520 W/m2
09:42 -10.2 °C -20.1 °C 1042.2 hPa NW 3.2 km/h 3.2 km/h 44% 0 mm 534 W/m2
09:48 -9.3 °C -19.1 °C 1041.9 hPa NNW 1.6 km/h 3.2 km/h 45% 0 mm 550 W/m2
09:54 -8.6 °C -19.2 °C 1041.9 hPa NW 3.2 km/h 3.2 km/h 42% 0 mm 564 W/m2
10:00 -8.9 °C -20.1 °C 1042.2 hPa NW 4.8 km/h 4.8 km/h 40% 0 mm 578 W/m2
10:06 -8.9 °C -21.3 °C 1041.9 hPa NE 3.2 km/h 4.8 km/h 36% 0 mm 589 W/m2
10:12 -8.4 °C -18.8 °C 1041.9 hPa WNW 1.6 km/h 4.8 km/h 43% 0 mm 603 W/m2
10:18 -8.4 °C -19.6 °C 1041.9 hPa SW 3.2 km/h 4.8 km/h 40% 0 mm 615 W/m2
10:24 -8.4 °C -18.5 °C 1041.5 hPa WNW 3.2 km/h 4.8 km/h 44% 0 mm 624 W/m2
10:30 -7.8 °C -19.3 °C 1041.5 hPa North 3.2 km/h 3.2 km/h 39% 0 mm 633 W/m2
10:36 -8.1 °C -19.6 °C 1041.5 hPa NW 1.6 km/h 4.8 km/h 39% 0 mm 645 W/m2
10:42 -7.8 °C -19.4 °C 1041.2 hPa NW 1.6 km/h 1.6 km/h 39% 0 mm 654 W/m2
10:48 -7 °C -18.9 °C 1041.2 hPa North 1.6 km/h 4.8 km/h 38% 0 mm 663 W/m2
10:54 -7 °C -18.9 °C 1041.2 hPa North 1.6 km/h 3.2 km/h 38% 0 mm 670 W/m2
11:00 -6.7 °C -19 °C 1040.9 hPa NW 1.6 km/h 4.8 km/h 37% 0 mm 677 W/m2
11:06 -6.4 °C -18.8 °C 1040.5 hPa NNW 3.2 km/h 4.8 km/h 37% 0 mm 682 W/m2
11:12 -6.8 °C -19.8 °C 1040.5 hPa NE 3.2 km/h 3.2 km/h 35% 0 mm 689 W/m2
11:18 -7.4 °C -21 °C 1040.5 hPa ENE 4.8 km/h 4.8 km/h 33% 0 mm 696 W/m2
11:24 -7.1 °C -19.6 °C 1040.5 hPa North 4.8 km/h 4.8 km/h 36% 0 mm 701 W/m2
11:30 -6.7 °C -19.3 °C 1040.2 hPa NNW 3.2 km/h 3.2 km/h 36% 0 mm 705 W/m2
11:36 -6.7 °C -19.9 °C 1040.2 hPa ENE 3.2 km/h 8 km/h 34% 0 mm 705 W/m2
11:42 -6.4 °C -18.1 °C 1040.2 hPa NE 3.2 km/h 6.4 km/h 39% 0 mm 710 W/m2
11:48 -6.9 °C -19.8 °C 1039.8 hPa ENE 4.8 km/h 6.4 km/h 35% 0 mm 714 W/m2
11:54 -6.5 °C -20.9 °C 1039.5 hPa NNE 3.2 km/h 4.8 km/h 31% 0 mm 715 W/m2
12:00 -6 °C -19 °C 1039.5 hPa NE 1.6 km/h 3.2 km/h 35% 0 mm 721 W/m2
12:06 -5.8 °C -19.6 °C 1039.5 hPa SE 1.6 km/h 4.8 km/h 33% 0 mm 719 W/m2
12:12 -5.9 °C -20.3 °C 1039.2 hPa SE 4.8 km/h 8 km/h 31% 0 mm 722 W/m2
12:18 -5.7 °C -17.8 °C 1039.2 hPa South 6.4 km/h 11.3 km/h 38% 0 mm 719 W/m2
12:24 -5.8 °C -20.7 °C 1038.8 hPa ENE 6.4 km/h 8 km/h 30% 0 mm 719 W/m2
12:30 -5.4 °C -19.2 °C 1038.8 hPa East 3.2 km/h 3.2 km/h 33% 0 mm 717 W/m2
12:36 -5.3 °C -18.7 °C 1038.8 hPa South 3.2 km/h 11.3 km/h 34% 0 mm 715 W/m2
12:42 -5.3 °C -18.8 °C 1038.8 hPa SE 4.8 km/h 4.8 km/h 34% 0 mm 712 W/m2
12:48 -5.4 °C -19.5 °C 1038.8 hPa SSE 3.2 km/h 8 km/h 32% 0 mm 712 W/m2
12:54 -4.9 °C -21.1 °C 1038.5 hPa NW 1.6 km/h 3.2 km/h 27% 0 mm 708 W/m2
13:00 -5.1 °C -20.4 °C 1038.5 hPa SSW 3.2 km/h 3.2 km/h 29% 0 mm 705 W/m2
13:06 -5.2 °C -21.3 °C 1038.5 hPa SSW 1.6 km/h 3.2 km/h 27% 0 mm 701 W/m2
13:12 -4.2 °C -18.1 °C 1038.1 hPa NW 1.6 km/h 8 km/h 33% 0 mm 696 W/m2
13:18 -4.1 °C -19.2 °C 1038.1 hPa WSW 4.8 km/h 8 km/h 30% 0 mm 689 W/m2
13:24 -4.9 °C -19.4 °C 1038.1 hPa SW 4.8 km/h 6.4 km/h 31% 0 mm 680 W/m2
13:30 -4.4 °C -18 °C 1037.8 hPa SSW 6.4 km/h 6.4 km/h 34% 0 mm 677 W/m2
13:36 -4.5 °C -18.7 °C 1037.8 hPa WSW 4.8 km/h 6.4 km/h 32% 0 mm 671 W/m2
13:42 -4.3 °C -17.8 °C 1037.5 hPa SSW 3.2 km/h 3.2 km/h 34% 0 mm 663 W/m2
13:48 -3.9 °C -17.9 °C 1037.5 hPa South 1.6 km/h 3.2 km/h 33% 0 mm 656 W/m2
13:54 -3.8 °C -19.7 °C 1037.1 hPa West 1.6 km/h 4.8 km/h 28% 0 mm 650 W/m2
14:00 -4.1 °C -19.1 °C 1037.1 hPa WSW 3.2 km/h 3.2 km/h 30% 0 mm 638 W/m2
14:06 -3.9 °C -18.9 °C 1036.8 hPa SW 4.8 km/h 4.8 km/h 30% 0 mm 615 W/m2
14:12 -4 °C -19.1 °C 1036.8 hPa SW 3.2 km/h 3.2 km/h 30% 0 mm 580 W/m2
14:18 -3.9 °C -17.9 °C 1036.8 hPa SSW 4.8 km/h 8 km/h 33% 0 mm 580 W/m2
14:24 -3.7 °C -18.1 °C 1036.8 hPa SSW 6.4 km/h 6.4 km/h 32% 0 mm 584 W/m2
14:30 -3.6 °C -18.7 °C 1036.8 hPa SSW 4.8 km/h 4.8 km/h 30% 0 mm 566 W/m2
14:36 -3.7 °C -20 °C 1036.8 hPa South 3.2 km/h 9.7 km/h 27% 0 mm 568 W/m2
14:42 -3.7 °C -19.2 °C 1036.5 hPa WSW 3.2 km/h 4.8 km/h 29% 0 mm 554 W/m2
14:48 -3.7 °C -17.3 °C 1036.5 hPa South 3.2 km/h 4.8 km/h 34% 0 mm 545 W/m2
14:54 -3.1 °C -18.2 °C 1036.5 hPa NW 1.6 km/h 4.8 km/h 30% 0 mm 455 W/m2
15:00 -3 °C -19 °C 1036.1 hPa West 1.6 km/h 1.6 km/h 28% 0 mm 517 W/m2
15:06 -3.1 °C -19.1 °C 1036.1 hPa WSW 3.2 km/h 6.4 km/h 28% 0 mm 501 W/m2
15:12 -3.3 °C -19.3 °C 1036.1 hPa West 3.2 km/h 4.8 km/h 28% 0 mm 482 W/m2
15:18 -2.9 °C -19.8 °C 1036.1 hPa NE 3.2 km/h 4.8 km/h 26% 0 mm 469 W/m2
15:24 -3.2 °C -19.6 °C 1035.8 hPa NE 3.2 km/h 3.2 km/h 27% 0 mm 454 W/m2
15:30 -2.9 °C -19.8 °C 1035.8 hPa ENE 1.6 km/h 1.6 km/h 26% 0 mm 432 W/m2
15:36 -2.7 °C -19.2 °C 1035.8 hPa WSW 1.6 km/h 3.2 km/h 27% 0 mm 422 W/m2
15:42 -2.6 °C -17.8 °C 1035.4 hPa WSW 3.2 km/h 3.2 km/h 30% 0 mm 369 W/m2
15:48 -2.9 °C -20.7 °C 1035.4 hPa SSE 1.6 km/h 3.2 km/h 24% 0 mm 387 W/m2
15:54 -2.6 °C -19.5 °C 1035.4 hPa SSE 1.6 km/h 1.6 km/h 26% 0 mm 302 W/m2
16:00 -2.3 °C -19.3 °C 1035.4 hPa Calm   1.6 km/h 26% 0 mm 330 W/m2
16:06 -2.4 °C -19.8 °C 1035.4 hPa South 1.6 km/h 1.6 km/h 25% 0 mm 343 W/m2
16:12 -2.6 °C -19.1 °C 1035.1 hPa South 3.2 km/h 9.7 km/h 27% 0 mm 320 W/m2
16:18 -2.8 °C -18.8 °C 1035.1 hPa SE 3.2 km/h 9.7 km/h 28% 0 mm 297 W/m2
16:24 -3.1 °C -20.4 °C 1035.1 hPa SE 1.6 km/h 6.4 km/h 25% 0 mm 283 W/m2
16:30 -2.5 °C -19.4 °C 1035.1 hPa SE 1.6 km/h 1.6 km/h 26% 0 mm 255 W/m2
16:36 -2.7 °C -18.7 °C 1035.1 hPa Calm   3.2 km/h 28% 0 mm 243 W/m2
16:42 -3 °C -19.8 °C 1035.1 hPa SE 1.6 km/h 1.6 km/h 26% 0 mm 220 W/m2
16:48 -3.1 °C -19.9 °C 1035.1 hPa SSW 1.6 km/h 1.6 km/h 26% 0 mm 105 W/m2
16:54 -3.2 °C -19.2 °C 1035.1 hPa SSE 1.6 km/h 4.8 km/h 28% 0 mm 32 W/m2
17:00 -3.4 °C -19.8 °C 1035.1 hPa SSE 3.2 km/h 3.2 km/h 27% 0 mm 30 W/m2
17:06 -3.4 °C -19.8 °C 1035.1 hPa SW 1.6 km/h 3.2 km/h 27% 0 mm 28 W/m2
17:12 -3.5 °C -19.8 °C 1035.1 hPa SW 1.6 km/h 1.6 km/h 27% 0 mm 26 W/m2
17:18 -3.6 °C -19.9 °C 1035.1 hPa ESE 1.6 km/h 4.8 km/h 27% 0 mm 25 W/m2
17:24 -3.6 °C -19.5 °C 1034.8 hPa ESE 1.6 km/h 1.6 km/h 28% 0 mm 21 W/m2
17:30 -3.6 °C -20.4 °C 1035.1 hPa Calm     26% 0 mm 16 W/m2
17:36 -3.7 °C -20 °C 1035.1 hPa Calm     27% 0 mm 12 W/m2
17:42 -3.7 °C -18.4 °C 1035.1 hPa Calm   1.6 km/h 31% 0 mm 11 W/m2
17:48 -3.8 °C -19.7 °C 1035.1 hPa Calm   1.6 km/h 28% 0 mm 9 W/m2
17:54 -3.8 °C -18.9 °C 1035.1 hPa Calm     30% 0 mm 7 W/m2
18:00 -3.9 °C -18.9 °C 1035.1 hPa Calm     30% 0 mm 0 W/m2
18:06 -4 °C -19.1 °C 1035.1 hPa Calm     30% 0 mm 0 W/m2
18:12 -4.2 °C -18.8 °C 1035.1 hPa Calm     31% 0 mm 0 W/m2
18:18 -4.4 °C -14.6 °C 1035.1 hPa Calm     45% 0 mm 0 W/m2
18:24 -4.7 °C -15.7 °C 1035.1 hPa Calm     42% 0 mm 0 W/m2
18:30 -5.1 °C -14.9 °C 1034.8 hPa Calm     46% 0 mm 0 W/m2
18:36 -5.3 °C -14.8 °C 1034.8 hPa Calm     47% 0 mm 0 W/m2
18:42 -5.6 °C -15.1 °C 1034.8 hPa Calm     47% 0 mm 0 W/m2
18:49 -5.8 °C -15.1 °C 1034.8 hPa Calm     48% 0 mm 0 W/m2
18:54 -5.8 °C -12.7 °C 1034.8 hPa Calm     58% 0 mm 0 W/m2
19:00 -5.8 °C -12.4 °C 1034.4 hPa Calm     60% 0 mm 0 W/m2
19:06 -5.9 °C -12 °C 1034.8 hPa Calm     62% 0 mm 0 W/m2
19:12 -6 °C -12.1 °C 1034.8 hPa Calm     62% 0 mm 0 W/m2
19:18 -6.2 °C -14.2 °C 1034.8 hPa Calm     53% 0 mm 0 W/m2
19:24 -6.2 °C -14.9 °C 1034.8 hPa Calm     50% 0 mm 0 W/m2
19:30 -6.3 °C -14.6 °C 1034.8 hPa Calm     52% 0 mm 0 W/m2
19:36 -6.4 °C -14.7 °C 1034.8 hPa Calm     52% 0 mm 0 W/m2
19:42 -6.6 °C -14.6 °C 1034.8 hPa Calm     53% 0 mm 0 W/m2
19:48 -6.7 °C -14.9 °C 1034.8 hPa Calm     52% 0 mm 0 W/m2
19:54 -6.8 °C -14.6 °C 1034.8 hPa Calm     54% 0 mm 0 W/m2
20:00 -7.1 °C -13.7 °C 1034.4 hPa Calm     59% 0 mm 0 W/m2
20:06 -7 °C -13.4 °C 1034.4 hPa Calm     60% 0 mm 0 W/m2
20:12 -6.9 °C -12.8 °C 1034.4 hPa Calm     63% 0 mm 0 W/m2
20:18 -6.9 °C -13.2 °C 1034.4 hPa Calm     61% 0 mm 0 W/m2
20:24 -7.1 °C -13.9 °C 1034.1 hPa Calm     58% 0 mm 0 W/m2
20:30 -7.2 °C -14.3 °C 1034.1 hPa Calm     57% 0 mm 0 W/m2
20:36 -7.3 °C -13.5 °C 1034.1 hPa Calm     61% 0 mm 0 W/m2
20:42 -7.3 °C -12.8 °C 1034.1 hPa Calm     65% 0 mm 0 W/m2
20:48 -7.1 °C -11.6 °C 1033.7 hPa Calm     70% 0 mm 0 W/m2
20:54 -7.1 °C -11.9 °C 1033.7 hPa Calm     68% 0 mm 0 W/m2
21:00 -7.1 °C -12.4 °C 1033.7 hPa Calm     66% 0 mm 0 W/m2
21:06 -6.8 °C -12.9 °C 1033.4 hPa ENE 1.6 km/h 6.4 km/h 62% 0 mm 0 W/m2
21:12 -6.6 °C -13.1 °C 1033.1 hPa ENE 1.6 km/h 8 km/h 60% 0 mm 0 W/m2
21:18 -6.3 °C -13.3 °C 1033.1 hPa East 1.6 km/h 8 km/h 58% 0 mm 0 W/m2
21:24 -6.2 °C -13.4 °C 1033.1 hPa ESE 1.6 km/h 4.8 km/h 57% 0 mm 0 W/m2
21:30 -6.2 °C -13.6 °C 1033.4 hPa ENE 1.6 km/h 1.6 km/h 56% 0 mm 0 W/m2
21:36 -6.3 °C -13.4 °C 1033.4 hPa East 1.6 km/h 1.6 km/h 57% 0 mm 0 W/m2
21:42 -6.3 °C -13.4 °C 1033.4 hPa Calm   1.6 km/h 57% 0 mm 0 W/m2
21:48 -6.3 °C -13.6 °C 1033.4 hPa Calm   1.6 km/h 56% 0 mm 0 W/m2
21:54 -6.3 °C -13.4 °C 1033.4 hPa Calm     57% 0 mm 0 W/m2
22:00 -6.4 °C -13.3 °C 1033.4 hPa Calm     58% 0 mm 0 W/m2
22:06 -6.7 °C -13.2 °C 1033.1 hPa Calm     60% 0 mm 0 W/m2
22:12 -6.9 °C -13.2 °C 1033.1 hPa Calm     61% 0 mm 0 W/m2
22:18 -7 °C -13.4 °C 1033.1 hPa Calm     60% 0 mm 0 W/m2
22:24 -7 °C -13.7 °C 1033.1 hPa Calm     59% 0 mm 0 W/m2
22:30 -6.8 °C -13.7 °C 1033.1 hPa Calm     58% 0 mm 0 W/m2
22:36 -6.9 °C -14 °C 1033.1 hPa Calm   1.6 km/h 57% 0 mm 0 W/m2
22:42 -6.8 °C -14.3 °C 1032.7 hPa Calm   1.6 km/h 55% 0 mm 0 W/m2
22:48 -6.8 °C -15 °C 1032.7 hPa SE 1.6 km/h 3.2 km/h 52% 0 mm 0 W/m2
22:54 -6.7 °C -14.9 °C 1032.7 hPa SE 1.6 km/h 1.6 km/h 52% 0 mm 0 W/m2
23:00 -6.7 °C -15.2 °C 1032.7 hPa Calm   1.6 km/h 51% 0 mm 0 W/m2
23:06 -6.8 °C -15.6 °C 1032.4 hPa Calm   1.6 km/h 50% 0 mm 0 W/m2
23:12 -6.9 °C -15.8 °C 1032.4 hPa SE 1.6 km/h 3.2 km/h 49% 0 mm 0 W/m2
23:18 -6.9 °C -15.8 °C 1032.4 hPa SE 1.6 km/h 3.2 km/h 49% 0 mm 0 W/m2
23:24 -6.9 °C -15.6 °C 1032.4 hPa SE 1.6 km/h 1.6 km/h 50% 0 mm 0 W/m2
23:30 -7.1 °C -15.6 °C 1032.1 hPa Calm     51% 0 mm 0 W/m2
23:36 -7.3 °C -15.1 °C 1032.1 hPa Calm     54% 0 mm 0 W/m2
23:42 -7.4 °C -15.3 °C 1032.1 hPa Calm     53% 0 mm 0 W/m2
23:48 -7.4 °C -15.1 °C 1032.1 hPa ESE 1.6 km/h 4.8 km/h 54% 0 mm 0 W/m2
23:54 -7.3 °C -15.5 °C 1032.1 hPa East 1.6 km/h 3.2 km/h 52% 0 mm 0 W/m2
Country Meadow, Clay, NY, USA
Compliments of Weather Underground - 2 mb